createdAt,value
2023-01-23T00:01:59.448Z,14.84
2023-01-23T00:04:26.735Z,14.84
2023-01-23T00:06:54.742Z,14.82
2023-01-23T00:09:21.948Z,14.86
2023-01-23T00:11:49.152Z,14.82
2023-01-23T00:17:03.599Z,14.85
2023-01-23T00:19:30.863Z,14.84
2023-01-23T00:21:58.070Z,14.83
2023-01-23T00:24:25.256Z,14.86
2023-01-23T00:26:52.498Z,14.87
2023-01-23T00:29:19.695Z,14.88
2023-01-23T00:31:47.116Z,14.85
2023-01-23T00:34:14.733Z,14.80
2023-01-23T00:36:42.255Z,14.81
2023-01-23T00:44:43.751Z,14.82
2023-01-23T00:47:10.975Z,14.81
2023-01-23T00:49:38.190Z,14.79
2023-01-23T00:52:05.378Z,14.84
2023-01-23T00:54:32.631Z,14.79
2023-01-23T00:56:59.812Z,14.79
2023-01-23T00:59:27.127Z,14.78
2023-01-23T01:01:54.441Z,14.78
2023-01-23T01:04:21.655Z,14.89
2023-01-23T01:06:48.848Z,14.79
2023-01-23T01:11:43.224Z,14.79
2023-01-23T01:14:10.403Z,14.77
2023-01-23T01:16:37.706Z,14.74
2023-01-23T01:19:05.290Z,14.80
2023-01-23T01:21:32.610Z,14.75
2023-01-23T01:23:59.964Z,14.77
2023-01-23T01:26:27.235Z,14.74
2023-01-23T01:28:54.425Z,14.75
2023-01-23T01:31:21.735Z,14.74
2023-01-23T01:33:49.251Z,14.74
2023-01-23T01:38:43.558Z,14.74
2023-01-23T01:41:11.488Z,14.72
2023-01-23T01:43:38.672Z,14.74
2023-01-23T01:46:06.061Z,14.72
2023-01-23T01:48:33.339Z,14.67
2023-01-23T01:51:00.616Z,14.65
2023-01-23T01:53:27.839Z,14.65
2023-01-23T01:55:55.040Z,14.62
2023-01-23T01:58:22.287Z,14.63
2023-01-23T02:00:49.509Z,14.61
2023-01-23T02:05:44.185Z,14.61
2023-01-23T02:10:40.575Z,14.58
2023-01-23T02:13:07.757Z,14.56
2023-01-23T02:15:34.932Z,14.58
2023-01-23T02:18:02.107Z,14.56
2023-01-23T02:20:29.370Z,14.53
2023-01-23T02:22:57.668Z,14.53
2023-01-23T02:25:24.898Z,14.52
2023-01-23T02:27:52.161Z,14.51
2023-01-23T02:30:20.986Z,14.51
2023-01-23T02:32:48.428Z,14.50
2023-01-23T02:38:02.851Z,14.52
2023-01-23T02:40:30.020Z,14.47
2023-01-23T02:42:57.209Z,14.48
2023-01-23T02:45:25.329Z,14.45
2023-01-23T02:47:52.643Z,14.45
2023-01-23T02:52:47.245Z,14.44
2023-01-23T02:57:41.827Z,14.44
2023-01-23T03:00:21.396Z,14.42
2023-01-23T03:02:48.833Z,14.45
2023-01-23T03:08:03.163Z,14.42
2023-01-23T03:10:30.719Z,14.41
2023-01-23T03:13:02.047Z,14.42
2023-01-23T03:15:29.287Z,14.38
2023-01-23T03:17:56.494Z,14.38
2023-01-23T03:20:23.848Z,14.41
2023-01-23T03:22:51.039Z,14.37
2023-01-23T03:27:45.488Z,14.37
2023-01-23T03:30:22.154Z,14.36
2023-01-23T03:32:49.717Z,14.37
2023-01-23T03:38:04.070Z,14.33
2023-01-23T03:40:50.020Z,14.33
2023-01-23T03:45:44.403Z,14.34
2023-01-23T03:50:58.802Z,14.33
2023-01-23T03:53:26.021Z,14.31
2023-01-23T03:55:53.274Z,14.31
2023-01-23T03:58:20.518Z,14.33
2023-01-23T04:00:47.776Z,14.27
2023-01-23T04:05:42.088Z,14.27
2023-01-23T04:10:56.572Z,14.27
2023-01-23T04:13:23.845Z,14.26
2023-01-23T04:15:51.056Z,14.25
2023-01-23T04:21:05.408Z,14.25
2023-01-23T04:23:32.775Z,14.26
2023-01-23T04:26:00.027Z,14.24
2023-01-23T04:35:48.756Z,14.23
2023-01-23T04:40:43.033Z,14.20
2023-01-23T04:45:37.444Z,14.21
2023-01-23T04:48:04.631Z,14.16
2023-01-23T04:50:31.867Z,14.19
2023-01-23T04:52:59.076Z,14.17
2023-01-23T04:55:28.201Z,14.20
2023-01-23T04:57:55.421Z,14.20
2023-01-23T05:00:22.834Z,14.20
2023-01-23T05:02:50.091Z,14.17
2023-01-23T05:05:21.300Z,14.17
2023-01-23T05:07:48.531Z,14.14
2023-01-23T05:12:42.903Z,14.15
2023-01-23T05:17:37.238Z,14.11
2023-01-23T05:20:04.436Z,14.16
2023-01-23T05:22:32.303Z,14.15
2023-01-23T05:24:59.551Z,14.14
2023-01-23T05:27:26.814Z,14.16
2023-01-23T05:29:54.031Z,14.16
2023-01-23T05:32:21.312Z,14.14
2023-01-23T05:34:48.547Z,14.12
2023-01-23T05:39:42.969Z,14.13
2023-01-23T05:44:57.331Z,14.12
2023-01-23T05:47:24.527Z,14.11
2023-01-23T05:49:51.826Z,14.09
2023-01-23T05:54:46.284Z,14.09
2023-01-23T05:57:13.463Z,14.09
2023-01-23T05:59:40.712Z,14.08
2023-01-23T06:02:07.889Z,14.04
2023-01-23T06:04:35.136Z,14.08
2023-01-23T06:07:02.331Z,14.09
2023-01-23T06:09:29.512Z,14.07
2023-01-23T06:11:56.761Z,14.07
2023-01-23T06:14:23.934Z,14.05
2023-01-23T06:16:51.176Z,14.03
2023-01-23T06:21:45.457Z,14.04
2023-01-23T06:26:39.760Z,14.06
2023-01-23T06:29:06.955Z,14.05
2023-01-23T06:31:34.252Z,14.04
2023-01-23T06:34:01.572Z,14.05
2023-01-23T06:41:43.103Z,14.05
2023-01-23T06:46:37.626Z,14.05
2023-01-23T06:49:06.267Z,14.05
2023-01-23T06:51:33.692Z,14.03
2023-01-23T06:54:00.893Z,14.03
2023-01-23T06:56:28.247Z,14.05
2023-01-23T06:58:55.563Z,14.04
2023-01-23T07:01:22.882Z,14.04
2023-01-23T07:03:50.143Z,14.04
2023-01-23T07:06:17.343Z,14.02
2023-01-23T07:08:44.548Z,14.05
2023-01-23T07:13:39.191Z,14.07
2023-01-23T07:16:06.504Z,14.07
2023-01-23T07:18:33.738Z,14.09
2023-01-23T07:21:01.150Z,14.11
2023-01-23T07:23:28.385Z,14.16
2023-01-23T07:25:55.597Z,14.19
2023-01-23T07:28:22.797Z,14.17
2023-01-23T07:30:50.099Z,14.18
2023-01-23T07:36:04.518Z,14.22
2023-01-23T07:38:31.724Z,14.27
2023-01-23T07:43:26.064Z,14.31
2023-01-23T07:50:47.510Z,14.36
2023-01-23T07:56:02.308Z,14.37
2023-01-23T07:58:29.486Z,14.37
2023-01-23T08:00:56.683Z,14.38
2023-01-23T08:03:23.976Z,14.44
2023-01-23T08:05:51.183Z,14.38
2023-01-23T08:08:18.378Z,14.41
2023-01-23T08:10:45.655Z,14.43
2023-01-23T08:13:12.987Z,14.43
2023-01-23T08:15:40.432Z,14.42
2023-01-23T08:18:07.647Z,14.43
2023-01-23T08:20:34.839Z,14.51
2023-01-23T08:23:02.376Z,14.51
2023-01-23T08:25:29.800Z,14.50
2023-01-23T08:27:57.049Z,14.53
2023-01-23T08:30:24.302Z,14.56
2023-01-23T08:32:51.584Z,14.56
2023-01-23T08:35:18.819Z,14.60
2023-01-23T08:37:46.021Z,14.69
2023-01-23T08:40:13.261Z,14.77
2023-01-23T08:42:40.483Z,14.76
2023-01-23T08:45:07.673Z,14.75
2023-01-23T08:47:36.788Z,14.72
2023-01-23T08:50:04.594Z,14.75
2023-01-23T08:52:31.849Z,14.84
2023-01-23T08:54:59.041Z,14.82
2023-01-23T08:57:26.423Z,14.90
2023-01-23T08:59:53.611Z,14.86
2023-01-23T09:02:22.162Z,14.88
2023-01-23T09:04:49.656Z,14.83
2023-01-23T09:07:16.853Z,14.90
2023-01-23T09:09:44.078Z,14.89
2023-01-23T09:12:11.279Z,14.87
2023-01-23T09:14:38.612Z,14.91
2023-01-23T09:17:05.796Z,14.86
2023-01-23T09:19:33.099Z,14.87
2023-01-23T09:22:00.305Z,14.90
2023-01-23T09:24:27.489Z,14.97
2023-01-23T09:26:54.723Z,14.95
2023-01-23T09:29:21.925Z,14.92
2023-01-23T09:31:49.160Z,14.91
2023-01-23T09:36:43.788Z,14.98
2023-01-23T09:41:59.747Z,14.91
2023-01-23T09:44:26.933Z,14.90
2023-01-23T09:49:21.229Z,14.90
2023-01-23T09:51:48.508Z,14.91
2023-01-23T09:54:15.837Z,14.91
2023-01-23T09:56:43.038Z,14.90
2023-01-23T10:04:24.511Z,14.91
2023-01-23T10:06:51.698Z,14.88
2023-01-23T10:09:18.891Z,14.90
2023-01-23T10:11:46.206Z,14.90
2023-01-23T10:14:15.007Z,14.93
2023-01-23T10:16:50.578Z,14.94
2023-01-23T10:19:18.313Z,14.91
2023-01-23T10:21:45.529Z,14.91
2023-01-23T10:24:12.713Z,14.91
2023-01-23T10:26:39.916Z,14.90
2023-01-23T10:29:07.118Z,14.91
2023-01-23T10:31:34.471Z,14.93
2023-01-23T10:34:04.877Z,14.93
2023-01-23T10:36:42.082Z,14.93
2023-01-23T10:39:14.885Z,14.92
2023-01-23T10:41:44.455Z,14.91
2023-01-23T10:44:13.405Z,14.95
2023-01-23T10:46:40.688Z,14.98
2023-01-23T10:54:42.258Z,14.97
2023-01-23T10:59:56.955Z,14.98
2023-01-23T11:02:24.290Z,14.98
2023-01-23T11:04:51.952Z,14.98
2023-01-23T11:07:19.150Z,15.00
2023-01-23T11:09:46.459Z,15.00
2023-01-23T11:12:13.655Z,15.01
2023-01-23T11:14:40.864Z,14.99
2023-01-23T11:17:08.049Z,15.00
2023-01-23T11:19:35.250Z,15.02
2023-01-23T11:22:02.511Z,15.00
2023-01-23T11:24:39.252Z,15.02
2023-01-23T11:27:07.836Z,15.01
2023-01-23T11:29:36.264Z,14.99
2023-01-23T11:32:03.586Z,14.98
2023-01-23T11:34:30.901Z,14.98
2023-01-23T11:36:58.111Z,15.04
2023-01-23T11:39:25.418Z,15.06
2023-01-23T11:41:52.601Z,15.08
2023-01-23T11:44:21.185Z,15.07
2023-01-23T11:46:50.012Z,15.09
2023-01-23T11:49:17.289Z,15.13
2023-01-23T11:51:44.480Z,15.15
2023-01-23T11:54:11.786Z,15.16
2023-01-23T11:56:39.004Z,15.09
2023-01-23T11:59:06.190Z,15.04
2023-01-23T12:01:33.505Z,15.02
2023-01-23T12:04:00.742Z,14.99
2023-01-23T12:06:27.953Z,15.04
2023-01-23T12:08:55.166Z,14.97
2023-01-23T12:11:24.412Z,15.03
2023-01-23T12:13:51.661Z,15.02
2023-01-23T12:16:18.893Z,15.07
2023-01-23T12:18:46.193Z,15.11
2023-01-23T12:21:13.375Z,15.09
2023-01-23T12:23:41.856Z,15.10
2023-01-23T12:28:56.806Z,15.12
2023-01-23T12:31:24.079Z,15.11
2023-01-23T12:33:51.321Z,15.07
2023-01-23T12:36:18.571Z,15.12
2023-01-23T12:38:45.769Z,15.11
2023-01-23T12:41:13.054Z,15.14
2023-01-23T12:43:40.270Z,15.13
2023-01-23T12:46:07.472Z,15.13
2023-01-23T12:48:34.678Z,15.11
2023-01-23T12:51:01.920Z,15.13
2023-01-23T12:53:30.525Z,15.16
2023-01-23T12:55:57.743Z,15.16
2023-01-23T12:58:25.843Z,15.16
2023-01-23T13:00:53.372Z,15.13
2023-01-23T13:03:22.707Z,15.14
2023-01-23T13:05:50.069Z,15.17
2023-01-23T13:08:19.010Z,15.13
2023-01-23T13:11:05.819Z,15.17
2023-01-23T13:16:00.122Z,15.16
2023-01-23T13:18:28.297Z,15.14
2023-01-23T13:21:14.353Z,15.19
2023-01-23T13:23:41.533Z,15.21
2023-01-23T13:26:08.745Z,15.19
2023-01-23T13:28:44.436Z,15.21
2023-01-23T13:31:13.051Z,15.21
2023-01-23T13:33:40.343Z,15.28
2023-01-23T13:36:07.561Z,15.25
2023-01-23T13:41:27.436Z,15.26
2023-01-23T13:43:54.648Z,15.25
2023-01-23T13:46:21.839Z,15.23
2023-01-23T14:22:17.433Z,15.30
2023-01-23T14:24:44.687Z,15.33
2023-01-23T14:27:13.203Z,15.32
2023-01-23T14:29:42.188Z,15.34
2023-01-23T14:34:36.453Z,15.35
2023-01-23T14:37:04.188Z,15.39
2023-01-23T14:39:31.419Z,15.42
2023-01-23T14:42:02.038Z,15.38
2023-01-23T14:44:29.574Z,15.38
2023-01-23T14:46:56.763Z,15.40
2023-01-23T14:49:23.970Z,15.39
2023-01-23T14:51:51.202Z,15.39
2023-01-23T14:54:23.009Z,15.42
2023-01-23T14:56:50.521Z,15.33
2023-01-23T14:59:17.722Z,15.39
2023-01-23T15:01:44.903Z,15.39
2023-01-23T15:04:12.179Z,15.39
2023-01-23T15:06:39.420Z,15.38
2023-01-23T15:09:06.646Z,15.38
2023-01-23T15:14:04.389Z,15.38
2023-01-23T15:16:33.978Z,15.38
2023-01-23T15:19:01.312Z,15.37
2023-01-23T15:23:55.628Z,15.36
2023-01-23T15:28:51.020Z,15.36
2023-01-23T15:31:18.329Z,15.34
2023-01-23T15:33:47.690Z,15.35
2023-01-23T15:36:14.957Z,15.35
2023-01-23T15:38:42.133Z,15.32
2023-01-23T15:41:09.480Z,15.35
2023-01-23T15:43:36.730Z,15.38
2023-01-23T15:46:03.988Z,15.36
2023-01-23T15:48:31.192Z,15.38
2023-01-23T15:50:58.984Z,15.37
2023-01-23T15:56:13.365Z,15.34
2023-01-23T15:58:40.586Z,15.36
2023-01-23T16:03:34.865Z,15.35
2023-01-23T16:06:02.097Z,15.38
2023-01-23T16:11:16.426Z,15.41
2023-01-23T16:13:44.389Z,15.41
2023-01-23T16:16:11.702Z,15.40
2023-01-23T16:21:06.087Z,15.40
2023-01-23T16:23:46.206Z,15.41
2023-01-23T16:26:14.316Z,15.42
2023-01-23T16:28:41.496Z,15.41
2023-01-23T16:31:08.729Z,15.43
2023-01-23T16:33:35.941Z,15.41
2023-01-23T16:36:03.121Z,15.40
2023-01-23T16:38:30.444Z,15.43
2023-01-23T16:40:59.550Z,15.43
2023-01-23T16:43:26.817Z,15.43
2023-01-23T16:45:56.144Z,15.43
2023-01-23T16:48:28.370Z,15.41
2023-01-23T16:50:56.269Z,15.43
2023-01-23T16:53:23.502Z,15.47
2023-01-23T16:55:51.697Z,15.55
2023-01-23T16:58:18.930Z,15.59
2023-01-23T17:00:46.167Z,15.63
2023-01-23T17:03:13.405Z,15.62
2023-01-23T17:08:27.808Z,15.54
2023-01-23T17:10:55.060Z,15.54
2023-01-23T17:13:22.327Z,15.59
2023-01-23T17:15:49.504Z,15.67
2023-01-23T17:18:16.687Z,15.67
2023-01-23T17:23:31.040Z,15.72
2023-01-23T17:26:01.327Z,15.77
2023-01-23T17:57:44.187Z,15.90
2023-01-23T18:00:11.567Z,15.88
2023-01-23T18:02:39.015Z,15.89
2023-01-23T18:05:06.341Z,15.93
2023-01-23T18:07:48.557Z,15.93
2023-01-23T18:10:21.169Z,15.93
2023-01-23T18:12:48.364Z,15.89
2023-01-23T18:15:15.863Z,15.91
2023-01-23T18:17:43.302Z,15.89
2023-01-23T18:20:10.542Z,15.91
2023-01-23T18:22:37.733Z,15.87
2023-01-23T18:25:04.927Z,15.89
2023-01-23T18:32:46.480Z,15.89
2023-01-23T18:35:14.244Z,15.94
2023-01-23T18:37:41.438Z,15.90
2023-01-23T18:40:08.620Z,15.82
2023-01-23T18:42:35.924Z,15.87
2023-01-23T18:45:03.124Z,15.92
2023-01-23T18:49:57.441Z,15.95
2023-01-23T18:52:25.031Z,15.97
2023-01-23T18:54:52.219Z,15.98
2023-01-23T18:57:19.453Z,15.94
2023-01-23T18:59:49.476Z,15.95
2023-01-23T19:02:16.755Z,15.98
2023-01-23T19:04:44.017Z,15.99
2023-01-23T19:07:11.196Z,16.00
2023-01-23T19:09:40.680Z,15.96
2023-01-23T19:12:14.027Z,15.95
2023-01-23T19:14:47.895Z,15.98
2023-01-23T19:17:15.077Z,15.88
2023-01-23T19:22:09.383Z,15.90
2023-01-23T19:27:23.743Z,15.88
2023-01-23T19:29:50.948Z,15.93
2023-01-23T19:32:18.241Z,15.95
2023-01-23T19:34:45.447Z,15.95
2023-01-23T19:37:13.970Z,15.97
2023-01-23T19:39:41.258Z,15.97
2023-01-23T19:42:08.459Z,15.99
2023-01-23T19:44:35.664Z,15.98
2023-01-23T19:49:32.467Z,15.94
2023-01-23T19:51:59.684Z,15.97
2023-01-23T19:54:26.906Z,15.99
2023-01-23T19:56:54.102Z,15.99
2023-01-23T19:59:21.682Z,15.99
2023-01-23T20:04:36.254Z,15.99
2023-01-23T20:07:03.461Z,15.97
2023-01-23T20:09:30.832Z,15.87
2023-01-23T20:11:58.051Z,15.77
2023-01-23T20:14:25.799Z,15.72
2023-01-23T20:16:53.018Z,15.73
2023-01-23T20:19:20.419Z,15.74
2023-01-23T20:21:48.599Z,15.73
2023-01-23T20:24:16.038Z,15.69
2023-01-23T20:26:43.706Z,15.70
2023-01-23T20:29:10.893Z,15.71
2023-01-23T20:34:05.270Z,15.69
2023-01-23T20:36:32.453Z,15.70
2023-01-23T20:38:59.662Z,15.78
2023-01-23T20:41:26.870Z,15.85
2023-01-23T20:43:54.055Z,15.89
2023-01-23T20:46:21.268Z,15.91
2023-01-23T20:51:15.762Z,15.90
2023-01-23T20:53:43.183Z,15.92
2023-01-23T20:56:10.442Z,15.93
2023-01-23T20:58:56.529Z,15.92
2023-01-23T21:01:23.611Z,15.92
2023-01-23T21:03:50.811Z,15.89
2023-01-23T21:06:18.094Z,15.89
2023-01-23T21:08:45.388Z,15.89
2023-01-23T21:11:12.596Z,15.88
2023-01-23T21:16:26.889Z,15.88
2023-01-23T21:18:54.135Z,15.90
2023-01-23T21:21:21.360Z,15.90
2023-01-23T21:23:51.468Z,15.91
2023-01-23T21:26:18.663Z,15.91
2023-01-23T21:28:45.859Z,15.90
2023-01-23T21:31:13.185Z,15.87
2023-01-23T21:33:44.195Z,15.88
2023-01-23T21:36:11.372Z,15.88
2023-01-23T21:38:38.850Z,15.82
2023-01-23T21:41:06.182Z,15.79
2023-01-23T21:43:33.399Z,15.80
2023-01-23T21:46:00.643Z,15.78
2023-01-23T21:48:27.883Z,15.75
2023-01-23T21:50:55.116Z,15.76
2023-01-23T21:53:22.322Z,15.77
2023-01-23T21:58:36.649Z,15.74
2023-01-23T22:01:22.762Z,15.77
2023-01-23T22:03:49.890Z,15.78
2023-01-23T22:06:17.070Z,15.77
2023-01-23T22:11:48.088Z,15.64
2023-01-23T22:14:15.343Z,15.66
2023-01-23T22:16:50.658Z,15.68
2023-01-23T22:19:18.375Z,15.69
2023-01-23T22:21:46.690Z,15.69
2023-01-23T22:24:14.167Z,15.71
2023-01-23T22:29:08.840Z,15.61
2023-01-23T22:31:36.166Z,15.65
2023-01-23T22:36:50.715Z,15.59
2023-01-23T22:39:19.699Z,15.52
2023-01-23T22:41:46.917Z,15.44
2023-01-23T22:44:14.367Z,15.44
2023-01-23T22:49:10.258Z,15.42
2023-01-23T22:51:37.454Z,15.38
2023-01-23T22:54:06.065Z,15.35
2023-01-23T22:56:33.319Z,15.31
2023-01-23T23:01:30.907Z,15.27
2023-01-23T23:03:58.179Z,15.26
2023-01-23T23:06:25.378Z,15.22
2023-01-23T23:08:52.580Z,15.20
2023-01-23T23:11:19.795Z,15.19
2023-01-23T23:13:46.968Z,15.18
2023-01-23T23:16:14.154Z,15.15
2023-01-23T23:18:41.490Z,15.13
2023-01-23T23:21:08.675Z,15.12
2023-01-23T23:23:36.065Z,15.11
2023-01-23T23:26:04.647Z,15.12
2023-01-23T23:28:31.831Z,15.07
2023-01-23T23:30:59.077Z,15.07
2023-01-23T23:33:26.293Z,15.05
2023-01-23T23:35:53.508Z,15.04
2023-01-23T23:38:20.701Z,15.02
2023-01-23T23:40:47.868Z,15.03
2023-01-23T23:43:15.048Z,14.99
2023-01-23T23:45:42.293Z,14.95
2023-01-23T23:48:09.540Z,14.95
2023-01-23T23:50:36.708Z,14.93
2023-01-23T23:53:03.884Z,14.92
2023-01-23T23:55:31.057Z,14.91
2023-01-23T23:57:58.237Z,14.90
